.
WxDataArchive / Data Records for 2008-10-17
2008-10-16 October 2008 2008-10-18

Data Records for Friday, 17 October 2008

Time	Temp	Chill	HIndex	Humid	Dewpt	 Wind 	HiWind	WindDir	Rain 	Barom 
-----	----	-----	------	-----	-----	------	------	-------	-----	----- 
00:00	50.4	50.4	50.4	69	40.6	0	0	---	0.00	30.194 
00:05	50.4	50.4	50.4	70	41.0	0	0	---	0.00	30.195 
00:10	50.2	50.2	50.2	70	40.8	0	0	---	0.00	30.191 
00:15	50.2	50.2	50.2	71	41.2	0	0	---	0.00	30.192 
00:20	50.2	50.2	50.2	72	41.5	0	0	---	0.00	30.194 
00:25	50.1	50.1	50.1	72	41.4	0	0	---	0.00	30.193 
00:30	50.1	50.1	50.1	73	41.8	0	0	---	0.00	30.191 
00:35	49.9	49.9	49.9	73	41.6	0	0	---	0.00	30.194 
00:40	49.9	49.9	49.9	74	41.9	0	0	---	0.00	30.194 
00:45	49.9	49.9	49.9	74	41.9	0	0	---	0.00	30.195 
00:50	49.8	49.8	49.8	74	41.9	0	0	---	0.00	30.195 
00:55	49.8	49.8	49.8	75	42.2	0	0	---	0.00	30.193 
01:00	49.6	49.6	49.6	75	42.0	0	0	---	0.00	30.193 
01:05	49.6	49.6	49.6	75	42.0	0	0	---	0.00	30.192 
01:10	49.5	49.5	49.5	75	41.9	0	0	---	0.00	30.193 
01:15	49.5	49.5	49.5	75	41.9	0	0	---	0.00	30.192 
01:20	49.4	49.4	49.4	76	42.2	0	0	---	0.00	30.192 
01:25	49.2	49.2	49.2	76	42.0	0	0	---	0.00	30.192 
01:30	49.1	49.1	49.1	77	42.2	0	0	---	0.00	30.196 
01:35	48.9	48.9	48.9	77	42.0	0	0	---	0.00	30.196 
01:40	48.8	48.8	48.8	78	42.2	0	0	---	0.00	30.196 
01:45	48.5	48.5	48.5	79	42.3	0	0	---	0.00	30.194 
01:50	48.3	48.3	48.3	79	42.1	0	0	---	0.00	30.198 
01:55	48.2	48.2	48.2	79	42.0	0	0	---	0.00	30.199 
02:00	47.9	47.9	47.9	80	42.0	0	0	---	0.00	30.200 
02:05	47.6	47.6	47.6	80	41.7	0	0	---	0.00	30.197 
02:10	47.4	47.4	47.4	81	41.9	0	0	---	0.00	30.194 
02:15	47.1	47.1	47.1	81	41.6	0	0	---	0.00	30.192 
02:20	46.8	46.8	46.8	81	41.3	0	0	---	0.00	30.193 
02:25	46.5	46.5	46.5	82	41.3	0	0	---	0.00	30.193 
02:30	46.2	46.2	46.2	83	41.3	0	0	---	0.00	30.192 
02:35	46.1	46.1	46.1	84	41.5	0	0	---	0.00	30.192 
02:40	46.1	46.1	46.1	85	41.8	0	0	---	0.00	30.191 
02:45	46.1	46.1	46.1	85	41.8	0	0	---	0.00	30.190 
02:50	46.1	46.1	46.1	85	41.8	0	0	---	0.00	30.190 
02:55	46.1	46.1	46.1	86	42.1	0	0	---	0.00	30.190 
03:00	46.2	46.2	46.2	86	42.2	0	0	---	0.00	30.190 
03:05	46.2	46.2	46.2	85	41.9	0	0	---	0.00	30.191 
03:10	46.4	46.4	46.4	85	42.1	0	0	---	0.00	30.191 
03:15	46.4	46.4	46.4	85	42.1	0	2	68	0.00	30.192 
03:20	46.5	46.5	46.5	85	42.2	0	0	---	0.00	30.192 
03:25	46.5	46.5	46.5	85	42.2	0	0	---	0.00	30.190 
03:30	46.5	46.5	46.5	84	41.9	0	1	68	0.00	30.190 
03:35	46.7	46.7	46.7	84	42.1	0	0	---	0.00	30.190 
03:40	46.7	46.7	46.7	84	42.1	0	0	---	0.00	30.191 
03:45	46.8	46.8	46.8	84	42.2	0	0	---	0.00	30.192 
03:50	46.8	46.8	46.8	83	41.9	0	0	---	0.00	30.194 
03:55	46.8	46.8	46.8	83	41.9	0	0	---	0.00	30.195 
04:00	46.8	46.8	46.8	83	41.9	0	0	---	0.00	30.193 
04:05	46.8	46.8	46.8	83	41.9	0	0	---	0.00	30.194 
04:10	46.8	46.8	46.8	83	41.9	0	3	68	0.00	30.195 
04:15	46.8	46.8	46.8	83	41.9	0	0	---	0.00	30.195 
04:20	46.8	46.8	46.8	83	41.9	0	0	---	0.00	30.196 
04:25	46.8	46.8	46.8	83	41.9	0	0	---	0.00	30.198 
04:30	46.8	46.8	46.8	83	41.9	0	0	---	0.00	30.203 
04:35	46.8	46.8	46.8	82	41.6	0	1	68	0.00	30.201 
04:40	46.8	46.8	46.8	82	41.6	0	0	---	0.00	30.204 
04:45	46.8	46.8	46.8	82	41.6	0	0	---	0.00	30.207 
04:50	46.8	46.8	46.8	82	41.6	0	0	---	0.00	30.207 
04:55	46.8	46.8	46.8	82	41.6	0	0	---	0.00	30.207 
05:00	46.8	46.8	46.8	81	41.3	0	0	---	0.00	30.208 
05:05	46.8	46.8	46.8	81	41.3	0	0	---	0.00	30.208 
05:10	46.8	46.8	46.8	82	41.6	0	0	---	0.00	30.208 
05:15	46.8	46.8	46.8	81	41.3	0	0	---	0.00	30.208 
05:20	46.8	46.8	46.8	81	41.3	0	0	---	0.00	30.209 
05:25	47.0	47.0	47.0	81	41.5	0	0	---	0.00	30.211 
05:30	47.0	47.0	47.0	81	41.5	0	1	68	0.00	30.211 
05:35	47.0	47.0	47.0	81	41.5	0	0	---	0.00	30.211 
05:40	47.0	47.0	47.0	81	41.5	0	0	---	0.00	30.211 
05:45	47.0	47.0	47.0	81	41.5	0	1	68	0.00	30.209 
05:50	46.8	46.8	46.8	81	41.3	0	1	68	0.00	30.209 
05:55	46.8	46.8	46.8	81	41.3	0	0	---	0.00	30.209 
06:00	46.8	46.8	46.8	81	41.3	0	1	68	0.00	30.210 
06:05	46.8	46.8	46.8	81	41.3	0	1	68	0.00	30.213 
06:10	46.8	46.8	46.8	81	41.3	0	2	68	0.00	30.213 
06:15	46.8	46.8	46.8	80	41.0	0	2	68	0.00	30.212 
06:20	46.8	46.8	46.8	80	41.0	0	1	68	0.00	30.212 
06:25	46.8	46.8	46.8	80	41.0	0	1	68	0.00	30.212 
06:30	46.7	46.7	46.7	79	40.5	0	3	68	0.00	30.213 
06:35	46.7	46.7	46.7	80	40.9	0	0	---	0.00	30.213 
06:40	46.5	46.5	46.5	80	40.7	0	0	---	0.00	30.214 
06:45	46.5	46.5	46.5	80	40.7	0	0	---	0.00	30.216 
06:50	46.5	46.5	46.5	81	41.0	0	0	---	0.00	30.216 
06:55	46.5	46.5	46.5	81	41.0	0	0	---	0.00	30.218 
07:00	46.4	46.4	46.4	81	40.9	0	0	---	0.00	30.217 
07:05	46.4	46.4	46.4	81	40.9	0	0	---	0.00	30.217 
07:10	46.4	46.4	46.4	81	40.9	0	1	68	0.00	30.216 
07:15	46.4	46.4	46.4	81	40.9	0	1	68	0.00	30.216 
07:20	46.5	46.5	46.5	81	41.0	0	1	68	0.00	30.213 
07:25	46.5	46.5	46.5	80	40.7	0	1	68	0.00	30.212 
07:30	46.5	46.5	46.5	80	40.7	0	1	68	0.00	30.213 
07:35	46.5	46.5	46.5	80	40.7	0	1	68	0.00	30.214 
07:40	46.7	46.7	46.7	80	40.9	0	1	68	0.00	30.215 
07:45	46.7	46.7	46.7	79	40.5	0	2	68	0.00	30.214 
07:50	46.8	46.8	46.8	79	40.6	0	1	68	0.00	30.218 
07:55	46.8	46.8	46.8	79	40.6	0	1	68	0.00	30.222 
08:00	47.0	47.0	47.0	79	40.8	0	1	68	0.00	30.223 
08:05	47.1	47.1	47.1	79	40.9	0	2	68	0.00	30.225 
08:10	47.6	47.6	47.6	78	41.1	1	3	68	0.00	30.226 
08:15	47.9	47.9	47.9	76	40.7	1	5	112	0.00	30.229 
08:20	48.0	48.0	48.0	76	40.8	0	2	90	0.00	30.229 
08:25	48.2	48.2	48.2	76	41.0	0	2	90	0.00	30.232 
08:30	48.2	48.2	48.2	75	40.7	1	4	90	0.00	30.237 
08:35	48.3	48.3	48.3	74	40.4	1	4	90	0.00	30.239 
08:40	48.5	48.5	48.5	74	40.6	1	5	90	0.00	30.240 
08:45	48.5	48.5	48.5	75	40.9	1	4	112	0.00	30.238 
08:50	48.5	48.5	48.5	75	40.9	0	2	68	0.00	30.240 
08:55	48.6	48.6	48.6	74	40.7	1	3	90	0.00	30.240 
09:00	48.8	48.8	48.8	74	40.9	2	4	112	0.00	30.241 
09:05	48.9	48.9	48.9	74	41.0	0	3	112	0.00	30.242 
09:10	49.2	49.2	49.2	73	40.9	1	3	112	0.00	30.242 
09:15	49.4	49.4	49.4	73	41.1	1	3	112	0.00	30.242 
09:20	49.4	49.4	49.4	72	40.8	1	4	112	0.00	30.239 
09:25	49.5	49.5	49.5	70	40.1	1	4	90	0.00	30.238 
09:30	49.6	49.6	49.6	72	40.9	1	2	68	0.00	30.239 
09:35	49.8	49.8	49.8	70	40.4	2	6	90	0.00	30.238 
09:40	50.1	50.1	50.1	69	40.3	2	6	90	0.00	30.238 
09:45	50.4	50.4	50.4	68	40.2	1	4	135	0.00	30.237 
09:50	50.8	50.8	50.8	68	40.6	2	4	112	0.00	30.239 
09:55	51.6	51.6	51.6	66	40.6	1	4	90	0.00	30.235 
10:00	52.0	52.0	52.0	63	39.8	2	7	112	0.00	30.232 
10:05	52.0	52.0	52.0	65	40.6	1	5	112	0.00	30.229 
10:10	52.2	52.2	52.2	63	40.0	2	5	112	0.00	30.228 
10:15	52.6	52.6	52.6	64	40.8	2	6	112	0.00	30.223 
10:20	53.1	53.1	53.1	59	39.2	1	7	112	0.00	30.222 
10:25	53.2	53.2	53.2	60	39.7	2	6	90	0.00	30.223 
10:30	53.6	53.6	53.6	59	39.6	2	5	90	0.00	30.223 
10:35	54.4	54.4	54.4	57	39.5	2	5	90	0.00	30.222 
10:40	54.7	54.7	54.7	57	39.8	1	5	68	0.00	30.219 
10:45	55.1	55.1	55.1	56	39.7	2	9	112	0.00	30.219 
10:50	55.0	55.0	55.0	57	40.0	2	6	112	0.00	30.217 
10:55	55.3	55.3	55.3	52	38.0	2	5	90	0.00	30.214 
11:00	55.6	55.6	55.6	56	40.2	1	3	68	0.00	30.209 
11:05	56.0	56.0	56.0	54	39.6	1	4	90	0.00	30.208 
11:10	55.9	55.9	55.9	51	38.0	2	6	135	0.00	30.206 
11:15	56.0	56.0	56.0	50	37.6	2	4	68	0.00	30.206 
11:20	56.0	56.0	56.0	50	37.6	1	3	112	0.00	30.206 
11:25	56.0	56.0	56.0	48	36.6	2	6	112	0.00	30.205 
11:30	56.2	56.2	56.2	52	38.8	1	2	112	0.00	30.204 
11:35	56.5	56.5	56.5	50	38.1	2	5	90	0.00	30.203 
11:40	57.0	57.0	57.0	48	37.5	1	3	112	0.00	30.204 
11:45	56.9	56.9	56.9	48	37.4	1	5	112	0.00	30.202 
11:50	56.3	56.3	56.3	47	36.3	1	3	112	0.00	30.201 
11:55	55.7	55.7	55.7	48	36.3	1	6	112	0.00	30.201 
12:00	55.1	55.1	55.1	47	35.2	0	2	135	0.00	30.202 
12:05	55.1	55.1	55.1	49	36.3	1	3	112	0.00	30.202 
12:10	55.6	55.6	55.6	48	36.2	1	4	112	0.00	30.198 
12:15	55.7	55.7	55.7	48	36.3	0	3	112	0.00	30.196 
12:20	55.4	55.4	55.4	47	35.5	1	5	112	0.00	30.194 
12:25	55.1	55.1	55.1	46	34.7	1	6	135	0.00	30.192 
12:30	55.7	55.7	55.7	49	36.8	1	4	135	0.00	30.188 
12:35	56.5	56.5	56.5	46	36.0	1	6	158	0.00	30.187 
12:40	57.0	57.0	57.0	44	35.3	2	6	90	0.00	30.181 
12:45	57.5	57.5	57.5	46	36.9	1	5	90	0.00	30.173 
12:50	57.3	57.3	57.3	44	35.6	0	3	315	0.00	30.173 
12:55	56.7	56.7	56.7	43	34.5	1	4	315	0.00	30.174 
13:00	56.5	56.5	56.5	44	34.9	0	2	135	0.00	30.173 
13:05	56.2	56.2	56.2	43	34.0	0	2	45	0.00	30.174 
13:10	56.2	56.2	56.2	43	34.0	1	3	45	0.00	30.171 
13:15	56.5	56.5	56.5	42	33.7	1	3	45	0.00	30.168 
13:20	56.7	56.7	56.7	45	35.6	2	5	90	0.00	30.166 
13:25	57.2	57.2	57.2	45	36.1	1	3	45	0.00	30.163 
13:30	57.6	57.6	57.6	43	35.3	1	5	90	0.00	30.159 
13:35	57.6	57.6	57.6	45	36.4	1	4	112	0.00	30.159 
13:40	57.6	57.6	57.6	44	35.8	0	2	68	0.00	30.158 
13:45	57.5	57.5	57.5	43	35.2	1	5	112	0.00	30.158 
13:50	57.3	57.3	57.3	42	34.4	1	4	112	0.00	30.159 
13:55	57.2	57.2	57.2	43	34.9	1	5	112	0.00	30.158 
14:00	57.3	57.3	57.3	41	33.8	2	5	68	0.00	30.153 
14:05	57.5	57.5	57.5	42	34.6	2	5	112	0.00	30.152 
14:10	57.5	57.5	57.5	43	35.2	0	2	112	0.00	30.150 
14:15	57.2	57.2	57.2	45	36.1	1	5	90	0.00	30.151 
14:20	57.2	57.2	57.2	46	36.6	2	6	135	0.00	30.148 
14:25	56.9	56.9	56.9	45	35.8	1	5	112	0.00	30.147 
14:30	56.9	56.9	56.9	48	37.4	2	9	68	0.00	30.147 
14:35	56.6	56.6	56.6	43	34.4	1	7	90	0.00	30.147 
14:40	56.5	56.5	56.5	44	34.9	1	3	90	0.00	30.148 
14:45	56.7	56.7	56.7	43	34.5	0	1	90	0.00	30.147 
14:50	57.2	57.2	57.2	43	34.9	1	6	90	0.00	30.146 
14:55	57.0	57.0	57.0	41	33.5	1	3	90	0.00	30.147 
15:00	57.0	57.0	57.0	43	34.7	1	4	90	0.00	30.147 
15:05	57.2	57.2	57.2	43	34.9	3	7	90	0.00	30.145 
15:10	57.2	57.2	57.2	42	34.3	1	4	90	0.00	30.145 
15:15	57.0	57.0	57.0	44	35.3	2	5	68	0.00	30.144 
15:20	56.9	56.9	56.9	45	35.8	0	2	68	0.00	30.146 
15:25	56.6	56.6	56.6	45	35.5	1	4	112	0.00	30.148 
15:30	56.6	56.6	56.6	44	34.9	2	4	112	0.00	30.148 
15:35	56.6	56.6	56.6	43	34.4	2	5	112	0.00	30.147 
15:40	56.5	56.5	56.5	43	34.3	1	4	90	0.00	30.148 
15:45	56.3	56.3	56.3	43	34.1	1	5	112	0.00	30.152 
15:50	56.2	56.2	56.2	45	35.1	1	4	90	0.00	30.149 
15:55	56.0	56.0	56.0	43	33.8	1	4	90	0.00	30.152 
16:00	55.9	55.9	55.9	43	33.7	2	4	112	0.00	30.152 
16:05	55.7	55.7	55.7	44	34.1	1	3	90	0.00	30.151 
16:10	55.6	55.6	55.6	46	35.2	1	3	112	0.00	30.149 
16:15	55.4	55.4	55.4	46	35.0	0	1	90	0.00	30.148 
16:20	55.4	55.4	55.4	44	33.9	0	1	90	0.00	30.149 
16:25	55.4	55.4	55.4	47	35.5	0	1	90	0.00	30.148 
16:30	55.4	55.4	55.4	47	35.5	0	1	90	0.00	30.147 
16:35	55.4	55.4	55.4	45	34.4	1	4	112	0.00	30.148 
16:40	55.4	55.4	55.4	46	35.0	0	2	112	0.00	30.148 
16:45	55.4	55.4	55.4	49	36.6	0	1	112	0.00	30.148 
16:50	55.3	55.3	55.3	50	37.0	0	1	112	0.00	30.148 
16:55	55.1	55.1	55.1	50	36.8	0	3	112	0.00	30.148 
17:00	55.0	55.0	55.0	51	37.2	0	1	112	0.00	30.150 
17:05	54.8	54.8	54.8	50	36.5	0	1	112	0.00	30.151 
17:10	54.7	54.7	54.7	52	37.4	0	1	112	0.00	30.151 
17:15	54.5	54.5	54.5	50	36.2	1	2	112	0.00	30.152 
17:20	54.5	54.5	54.5	50	36.2	1	3	112	0.00	30.152 
17:25	54.5	54.5	54.5	50	36.2	1	4	68	0.00	30.151 
17:30	54.4	54.4	54.4	49	35.6	1	2	68	0.00	30.156 
17:35	54.2	54.2	54.2	51	36.5	0	1	68	0.00	30.154 
17:40	53.9	53.9	53.9	51	36.2	0	1	68	0.00	30.153 
17:45	53.6	53.6	53.6	52	36.4	0	1	68	0.00	30.154 
17:50	53.5	53.5	53.5	53	36.8	0	0	---	0.00	30.156 
17:55	53.3	53.3	53.3	54	37.1	0	0	---	0.00	30.158 
18:00	53.1	53.1	53.1	54	36.9	0	0	---	0.00	30.158 
18:05	52.9	52.9	52.9	56	37.6	0	0	---	0.00	30.160 
18:10	52.6	52.6	52.6	55	36.9	0	0	---	0.00	30.162 
18:15	52.3	52.3	52.3	55	36.6	0	0	---	0.00	30.164 
18:20	52.0	52.0	52.0	56	36.8	0	0	---	0.00	30.164 
18:25	51.9	51.9	51.9	58	37.6	0	0	---	0.00	30.164 
18:30	51.7	51.7	51.7	58	37.4	0	0	---	0.00	30.165 
18:35	51.6	51.6	51.6	58	37.3	0	0	---	0.00	30.166 
18:40	51.4	51.4	51.4	58	37.1	0	0	---	0.00	30.168 
18:45	51.3	51.3	51.3	59	37.5	0	0	---	0.00	30.168 
18:50	51.1	51.1	51.1	59	37.3	0	0	---	0.00	30.169 
18:55	51.0	51.0	51.0	59	37.2	0	0	---	0.00	30.169 
19:00	51.0	51.0	51.0	61	38.0	0	0	---	0.00	30.169 
19:05	50.8	50.8	50.8	62	38.3	0	0	---	0.00	30.166 
19:10	50.8	50.8	50.8	62	38.3	0	0	---	0.00	30.166 
19:15	50.7	50.7	50.7	61	37.7	0	0	---	0.00	30.166 
19:20	50.7	50.7	50.7	62	38.2	0	0	---	0.00	30.166 
19:25	50.5	50.5	50.5	62	38.0	0	0	---	0.00	30.167 
19:30	50.4	50.4	50.4	62	37.9	0	0	---	0.00	30.170 
19:35	50.2	50.2	50.2	62	37.7	0	0	---	0.00	30.169 
19:40	50.1	50.1	50.1	62	37.6	0	0	---	0.00	30.169 
19:45	49.9	49.9	49.9	63	37.8	0	0	---	0.00	30.169 
19:50	49.8	49.8	49.8	64	38.1	0	0	---	0.00	30.169 
19:55	49.6	49.6	49.6	65	38.3	0	0	---	0.00	30.170 
20:00	49.5	49.5	49.5	65	38.2	0	0	---	0.00	30.171 
20:05	49.4	49.4	49.4	65	38.1	0	0	---	0.00	30.170 
20:10	49.2	49.2	49.2	65	37.9	0	0	---	0.00	30.173 
20:15	49.2	49.2	49.2	66	38.3	0	0	---	0.00	30.173 
20:20	49.1	49.1	49.1	67	38.6	0	0	---	0.00	30.172 
20:25	49.1	49.1	49.1	66	38.2	0	0	---	0.00	30.174 
20:30	49.1	49.1	49.1	66	38.2	0	0	---	0.00	30.173 
20:35	49.1	49.1	49.1	67	38.6	0	0	---	0.00	30.171 
20:40	49.1	49.1	49.1	67	38.6	0	0	---	0.00	30.173 
20:45	49.1	49.1	49.1	67	38.6	0	0	---	0.00	30.176 
20:50	49.1	49.1	49.1	67	38.6	0	0	---	0.00	30.177 
20:55	48.9	48.9	48.9	68	38.8	0	0	---	0.00	30.177 
21:00	48.9	48.9	48.9	69	39.2	0	0	---	0.00	30.179 
21:05	48.8	48.8	48.8	68	38.7	0	0	---	0.00	30.178 
21:10	48.8	48.8	48.8	68	38.7	0	0	---	0.00	30.177 
21:15	48.6	48.6	48.6	69	38.9	0	0	---	0.00	30.177 
21:20	48.6	48.6	48.6	68	38.5	0	0	---	0.00	30.178 
21:25	48.6	48.6	48.6	66	37.8	0	1	68	0.00	30.177 
21:30	48.9	48.9	48.9	64	37.3	0	1	68	0.00	30.178 
21:35	49.2	49.2	49.2	64	37.5	0	2	68	0.00	30.179 
21:40	49.4	49.4	49.4	64	37.7	0	1	68	0.00	30.178 
21:45	49.4	49.4	49.4	63	37.3	0	0	---	0.00	30.179 
21:50	49.4	49.4	49.4	63	37.3	0	0	---	0.00	30.179 
21:55	49.4	49.4	49.4	64	37.7	0	0	---	0.00	30.179 
22:00	49.4	49.4	49.4	63	37.3	0	2	68	0.00	30.179 
22:05	49.2	49.2	49.2	64	37.5	0	1	68	0.00	30.175 
22:10	49.1	49.1	49.1	63	37.1	0	1	68	0.00	30.176 
22:15	49.1	49.1	49.1	64	37.5	0	2	68	0.00	30.175 
22:20	48.9	48.9	48.9	64	37.3	0	2	68	0.00	30.175 
22:25	48.9	48.9	48.9	64	37.3	0	2	68	0.00	30.175 
22:30	49.1	49.1	49.1	64	37.5	1	2	68	0.00	30.175 
22:35	49.1	49.1	49.1	64	37.5	0	1	68	0.00	30.175 
22:40	48.9	48.9	48.9	65	37.7	0	1	68	0.00	30.175 
22:45	48.9	48.9	48.9	66	38.0	0	0	---	0.00	30.176 
22:50	48.8	48.8	48.8	67	38.3	0	0	---	0.00	30.176 
22:55	48.8	48.8	48.8	67	38.3	0	1	68	0.00	30.176 
23:00	48.6	48.6	48.6	67	38.1	0	1	68	0.00	30.176 
23:05	48.5	48.5	48.5	67	38.0	0	1	68	0.00	30.176 
23:10	48.5	48.5	48.5	67	38.0	0	1	68	0.00	30.176 
23:15	48.5	48.5	48.5	67	38.0	0	1	68	0.00	30.175 
23:20	48.3	48.3	48.3	68	38.2	0	0	---	0.00	30.175 
23:25	48.3	48.3	48.3	69	38.6	0	0	---	0.00	30.177 
23:30	48.2	48.2	48.2	69	38.5	0	1	68	0.00	30.177 
23:35	48.0	48.0	48.0	69	38.3	0	1	68	0.00	30.176 
23:40	48.0	48.0	48.0	69	38.3	0	0	---	0.00	30.175 
23:45	47.9	47.9	47.9	69	38.2	0	0	---	0.00	30.176 
23:50	47.7	47.7	47.7	70	38.4	0	0	---	0.00	30.175 
23:55	47.6	47.6	47.6	70	38.3	0	0	---	0.00	30.173 

CoCoRaHS
IN-AL-39
A2 Web Hosting
Creative Commons License
GoDaddy
Look for:

loaded 2017-10-17 00:31:51 • last modified 2010-11-18 10:43:29
Privacy PolicyDisclaimer
• wx.awcolley.com is powered by PmWiki v.2002016 •
• all content (unless otherwise noted) © 2017 A W Colley